Overview Statistics Trail Chart Weather Telemetry Raw packets
 

This is the latest recevied weather packets stored in our database for station/object W6MAF. If no packets are shown the sender has not sent any weather packets the latest 10 day(s).

<< 57 58 59 60 61 62 63 >>
Time Temp. Humidity Pressure Rain* Wind** Luminosity Snow
1788261376 15.56° C 26% - 0 mm 3.58 m/s, 186° - -
1788261079 15.56° C 29% - 0 mm 4.92 m/s, 191° - -
1788260781 15.56° C 31% - 0 mm 4.47 m/s, 193° - -
1788260483 15° C 34% - 0 mm 4.02 m/s, 183° - -
1788260186 15° C 36% - 0 mm 4.92 m/s, 195° - -
1788259885 15.56° C 38% - 0 mm 4.92 m/s, 186° - -
1788259587 15.56° C 37% - 0 mm 5.36 m/s, 193° - -
1788259289 15.56° C 37% - 0 mm 4.92 m/s, 211° - -
1788258992 15.56° C 36% - 0 mm 4.92 m/s, 181° - -
1788258694 15.56° C 35% - 0 mm 4.02 m/s, 207° - -
1788258396 15.56° C 35% - 0 mm 4.47 m/s, 201° - -
1788258095 15.56° C 35% - 0 mm 4.02 m/s, 201° - -
1788257798 15° C 35% - 0 mm 4.92 m/s, 194° - -
1788257500 15° C 36% - 0 mm 3.58 m/s, 198° - -
1788257202 15.56° C 35% - 0 mm 3.13 m/s, 214° - -
1788256607 16.11° C 31% - 0 mm 2.68 m/s, 205° - -
1788256306 16.67° C 29% - 0 mm 2.24 m/s, 221° - -
1788256008 17.22° C 29% - 0 mm 2.68 m/s, 186° - -
1788255710 17.22° C 28% - 0 mm 1.34 m/s, 187° - -
1788255413 17.78° C 23% - 0 mm 0.89 m/s, 218° - -
1788255115 18.33° C 21% - 0 mm 2.24 m/s, 190° - -
1788254817 18.33° C 20% - 0 mm 4.47 m/s, 193° - -
1788254516 18.89° C 19% - 0 mm 0 m/s - -
1788254218 18.89° C 18% - 0 mm 5.36 m/s, 193° - -
1788253921 18.89° C 17% - 0 mm 3.58 m/s, 169° - -

* Rain latest hour (hover to see other rain measurements)
** Current wind speed in m/s (hover to see current wind gust speed)